sensor_id;sensor_type;location;lat;lon;timestamp;pressure;altitude;pressure_sealevel;temperature;humidity
23427;BME280;41148;45.420;10.952;2022-12-18T00:02:24;101917.66;;;4.80;100.00
23427;BME280;41148;45.420;10.952;2022-12-18T00:04:51;101929.38;;;4.98;100.00
23427;BME280;41148;45.420;10.952;2022-12-18T00:07:19;101922.22;;;4.92;100.00
23427;BME280;41148;45.420;10.952;2022-12-18T00:09:46;101938.06;;;4.91;100.00
23427;BME280;41148;45.420;10.952;2022-12-18T00:12:14;101934.03;;;4.58;100.00
23427;BME280;41148;45.420;10.952;2022-12-18T00:14:41;101936.78;;;4.64;100.00
23427;BME280;41148;45.420;10.952;2022-12-18T00:17:09;101932.38;;;4.65;100.00
23427;BME280;41148;45.420;10.952;2022-12-18T00:19:37;101930.00;;;4.81;100.00
23427;BME280;41148;45.420;10.952;2022-12-18T00:22:04;101923.63;;;4.69;100.00
23427;BME280;41148;45.420;10.952;2022-12-18T00:24:33;101929.09;;;4.81;100.00
23427;BME280;41148;45.420;10.952;2022-12-18T00:27:00;101927.44;;;4.87;100.00
23427;BME280;41148;45.420;10.952;2022-12-18T00:29:28;101925.81;;;4.94;100.00
23427;BME280;41148;45.420;10.952;2022-12-18T00:31:55;101922.22;;;4.92;100.00
23427;BME280;41148;45.420;10.952;2022-12-18T00:34:23;101941.59;;;4.91;100.00
23427;BME280;41148;45.420;10.952;2022-12-18T00:36:52;101947.94;;;5.02;100.00
23427;BME280;41148;45.420;10.952;2022-12-18T00:39:19;101939.94;;;4.99;100.00
23427;BME280;41148;45.420;10.952;2022-12-18T00:42:05;101955.91;;;5.07;100.00
23427;BME280;41148;45.420;10.952;2022-12-18T00:44:51;101933.03;;;5.09;100.00
23427;BME280;41148;45.420;10.952;2022-12-18T00:47:19;101955.16;;;5.15;100.00
23427;BME280;41148;45.420;10.952;2022-12-18T00:49:46;101965.75;;;5.18;100.00
23427;BME280;41148;45.420;10.952;2022-12-18T00:52:14;101969.25;;;5.16;99.77
23427;BME280;41148;45.420;10.952;2022-12-18T00:54:41;101964.75;;;5.10;100.00
23427;BME280;41148;45.420;10.952;2022-12-18T00:57:08;101979.94;;;5.22;100.00
23427;BME280;41148;45.420;10.952;2022-12-18T00:59:36;101982.72;;;5.31;100.00
23427;BME280;41148;45.420;10.952;2022-12-18T01:02:03;101979.97;;;5.27;100.00
23427;BME280;41148;45.420;10.952;2022-12-18T01:04:32;101979.09;;;5.28;100.00
23427;BME280;41148;45.420;10.952;2022-12-18T01:07:00;101978.44;;;5.41;100.00
23427;BME280;41148;45.420;10.952;2022-12-18T01:09:31;101990.66;;;5.34;100.00
23427;BME280;41148;45.420;10.952;2022-12-18T01:11:58;101983.53;;;5.30;100.00
23427;BME280;41148;45.420;10.952;2022-12-18T01:14:26;101994.06;;;5.27;100.00
23427;BME280;41148;45.420;10.952;2022-12-18T01:16:53;102005.47;;;5.22;100.00
23427;BME280;41148;45.420;10.952;2022-12-18T01:19:22;102003.50;;;5.11;100.00
23427;BME280;41148;45.420;10.952;2022-12-18T01:21:50;102012.41;;;5.15;100.00
23427;BME280;41148;45.420;10.952;2022-12-18T01:24:19;102010.59;;;5.12;100.00
23427;BME280;41148;45.420;10.952;2022-12-18T01:26:48;102006.13;;;5.10;100.00
23427;BME280;41148;45.420;10.952;2022-12-18T01:29:17;102018.56;;;5.15;100.00
23427;BME280;41148;45.420;10.952;2022-12-18T01:31:44;102018.56;;;5.15;100.00
23427;BME280;41148;45.420;10.952;2022-12-18T01:34:13;102017.69;;;5.15;100.00
23427;BME280;41148;45.420;10.952;2022-12-18T01:36:41;102030.31;;;5.34;100.00
23427;BME280;41148;45.420;10.952;2022-12-18T01:39:13;102032.91;;;5.31;100.00
23427;BME280;41148;45.420;10.952;2022-12-18T01:41:42;102038.19;;;5.31;100.00
23427;BME280;41148;45.420;10.952;2022-12-18T01:47:27;102030.44;;;5.42;100.00
23427;BME280;41148;45.420;10.952;2022-12-18T01:49:57;102032.13;;;5.40;100.00
23427;BME280;41148;45.420;10.952;2022-12-18T01:52:28;102041.91;;;5.45;100.00
23427;BME280;41148;45.420;10.952;2022-12-18T01:54:56;102043.66;;;5.43;100.00
23427;BME280;41148;45.420;10.952;2022-12-18T01:57:27;102049.69;;;5.35;100.00
23427;BME280;41148;45.420;10.952;2022-12-18T01:59:59;102036.31;;;5.23;100.00
23427;BME280;41148;45.420;10.952;2022-12-18T02:02:28;102045.09;;;5.22;100.00
23427;BME280;41148;45.420;10.952;2022-12-18T02:04:56;102041.59;;;5.24;100.00
23427;BME280;41148;45.420;10.952;2022-12-18T02:13:40;102048.84;;;5.37;100.00
23427;BME280;41148;45.420;10.952;2022-12-18T02:18:50;102062.28;;;5.51;100.00
23427;BME280;41148;45.420;10.952;2022-12-18T02:21:45;102066.63;;;5.49;100.00
23427;BME280;41148;45.420;10.952;2022-12-18T02:24:41;102063.91;;;5.41;99.54
23427;BME280;41148;45.420;10.952;2022-12-18T02:27:12;102048.72;;;5.30;98.81
23427;BME280;41148;45.420;10.952;2022-12-18T02:29:46;102069.19;;;5.43;100.00
23427;BME280;41148;45.420;10.952;2022-12-18T02:32:31;102067.47;;;5.46;99.71
23427;BME280;41148;45.420;10.952;2022-12-18T02:35:05;102066.59;;;5.47;99.12
23427;BME280;41148;45.420;10.952;2022-12-18T02:37:35;102077.16;;;5.46;99.44
23427;BME280;41148;45.420;10.952;2022-12-18T02:40:05;102084.16;;;5.42;100.00
23427;BME280;41148;45.420;10.952;2022-12-18T02:42:35;102086.78;;;5.41;100.00
23427;BME280;41148;45.420;10.952;2022-12-18T02:45:06;102089.28;;;5.32;100.00
23427;BME280;41148;45.420;10.952;2022-12-18T02:47:41;102090.09;;;5.29;100.00
23427;BME280;41148;45.420;10.952;2022-12-18T02:53:42;102098.09;;;5.32;100.00
23427;BME280;41148;45.420;10.952;2022-12-18T02:56:18;102095.53;;;5.37;100.00
23427;BME280;41148;45.420;10.952;2022-12-18T02:59:12;102099.13;;;5.40;100.00
23427;BME280;41148;45.420;10.952;2022-12-18T03:01:57;102093.88;;;5.43;100.00
23427;BME280;41148;45.420;10.952;2022-12-18T03:04:32;102106.13;;;5.38;100.00
23427;BME280;41148;45.420;10.952;2022-12-18T03:07:09;102097.53;;;5.53;100.00
23427;BME280;41148;45.420;10.952;2022-12-18T03:09:41;102094.75;;;5.44;99.63
23427;BME280;41148;45.420;10.952;2022-12-18T03:12:16;102101.88;;;5.50;99.26
23427;BME280;41148;45.420;10.952;2022-12-18T03:17:36;102101.72;;;5.39;99.36
23427;BME280;41148;45.420;10.952;2022-12-18T03:20:44;102103.50;;;5.40;99.83
23427;BME280;41148;45.420;10.952;2022-12-18T03:23:21;102093.78;;;5.39;99.82
23427;BME280;41148;45.420;10.952;2022-12-18T03:25:56;102098.31;;;5.46;98.78
23427;BME280;41148;45.420;10.952;2022-12-18T03:28:33;102101.81;;;5.45;99.07
23427;BME280;41148;45.420;10.952;2022-12-18T03:31:05;102096.50;;;5.42;99.52
23427;BME280;41148;45.420;10.952;2022-12-18T03:36:08;102106.97;;;5.37;100.00
23427;BME280;41148;45.420;10.952;2022-12-18T03:38:35;102101.69;;;5.37;98.56
23427;BME280;41148;45.420;10.952;2022-12-18T03:44:21;102106.13;;;5.38;94.40
23427;BME280;41148;45.420;10.952;2022-12-18T03:49:34;102128.19;;;5.40;94.39
23427;BME280;41148;45.420;10.952;2022-12-18T03:52:22;102119.41;;;5.41;90.82
23427;BME280;41148;45.420;10.952;2022-12-18T03:54:54;102125.63;;;5.46;91.70
23427;BME280;41148;45.420;10.952;2022-12-18T03:57:26;102122.03;;;5.41;93.60
23427;BME280;41148;45.420;10.952;2022-12-18T04:00:00;102131.75;;;5.42;92.65
23427;BME280;41148;45.420;10.952;2022-12-18T04:02:43;102129.91;;;5.40;93.06
23427;BME280;41148;45.420;10.952;2022-12-18T04:05:19;102132.63;;;5.43;92.96
23427;BME280;41148;45.420;10.952;2022-12-18T04:07:49;102147.50;;;5.38;95.67
23427;BME280;41148;45.420;10.952;2022-12-18T04:10:18;102144.84;;;5.36;96.61
23427;BME280;41148;45.420;10.952;2022-12-18T04:12:46;102143.25;;;5.46;94.05
23427;BME280;41148;45.420;10.952;2022-12-18T04:15:14;102155.69;;;5.52;94.45
23427;BME280;41148;45.420;10.952;2022-12-18T04:20:51;102152.19;;;5.54;93.82
23427;BME280;41148;45.420;10.952;2022-12-18T04:23:19;102144.97;;;5.42;96.77
23427;BME280;41148;45.420;10.952;2022-12-18T04:25:47;102154.66;;;5.43;95.08
23427;BME280;41148;45.420;10.952;2022-12-18T04:28:22;102152.94;;;5.47;93.69
23427;BME280;41148;45.420;10.952;2022-12-18T04:30:50;102144.94;;;5.41;94.24
23427;BME280;41148;45.420;10.952;2022-12-18T04:33:19;102155.50;;;5.41;95.00
23427;BME280;41148;45.420;10.952;2022-12-18T04:35:47;102167.88;;;5.42;95.55
23427;BME280;41148;45.420;10.952;2022-12-18T04:38:14;102178.41;;;5.40;93.62
23427;BME280;41148;45.420;10.952;2022-12-18T04:40:43;102174.22;;;5.53;95.48
23427;BME280;41148;45.420;10.952;2022-12-18T04:43:19;102180.22;;;5.44;96.75
23427;BME280;41148;45.420;10.952;2022-12-18T04:45:47;102160.72;;;5.38;95.84
23427;BME280;41148;45.420;10.952;2022-12-18T04:48:14;102171.31;;;5.39;95.70
23427;BME280;41148;45.420;10.952;2022-12-18T04:50:42;102187.06;;;5.32;95.19
23427;BME280;41148;45.420;10.952;2022-12-18T04:53:09;102196.00;;;5.40;95.75
23427;BME280;41148;45.420;10.952;2022-12-18T04:55:36;102188.88;;;5.36;94.78
23427;BME280;41148;45.420;10.952;2022-12-18T04:58:04;102182.53;;;5.25;94.56
23427;BME280;41148;45.420;10.952;2022-12-18T05:00:32;102195.94;;;5.37;93.39
23427;BME280;41148;45.420;10.952;2022-12-18T05:03:01;102205.69;;;5.39;92.69
23427;BME280;41148;45.420;10.952;2022-12-18T05:05:29;102197.81;;;5.42;92.30
23427;BME280;41148;45.420;10.952;2022-12-18T05:07:57;102191.56;;;5.39;91.82
23427;BME280;41148;45.420;10.952;2022-12-18T05:10:24;102206.47;;;5.32;92.65
23427;BME280;41148;45.420;10.952;2022-12-18T05:12:52;102218.84;;;5.36;93.87
23427;BME280;41148;45.420;10.952;2022-12-18T05:15:31;102214.47;;;5.38;93.50
23427;BME280;41148;45.420;10.952;2022-12-18T05:18:10;102219.84;;;5.41;92.00
23427;BME280;41148;45.420;10.952;2022-12-18T05:20:37;102203.00;;;5.36;90.64
23427;BME280;41148;45.420;10.952;2022-12-18T05:23:06;102218.13;;;5.45;88.35
23427;BME280;41148;45.420;10.952;2022-12-18T05:25:34;102219.00;;;5.44;89.28
23427;BME280;41148;45.420;10.952;2022-12-18T05:28:02;102225.13;;;5.41;90.98
23427;BME280;41148;45.420;10.952;2022-12-18T05:30:29;102221.50;;;5.36;92.06
23427;BME280;41148;45.420;10.952;2022-12-18T05:32:57;102216.91;;;5.26;87.18
23427;BME280;41148;45.420;10.952;2022-12-18T05:35:24;102223.19;;;5.31;86.16
23427;BME280;41148;45.420;10.952;2022-12-18T05:37:51;102237.44;;;5.41;85.77
23427;BME280;41148;45.420;10.952;2022-12-18T05:40:19;102240.00;;;5.36;89.28
23427;BME280;41148;45.420;10.952;2022-12-18T05:42:46;102252.47;;;5.43;90.13
23427;BME280;41148;45.420;10.952;2022-12-18T05:45:14;102250.41;;;5.27;89.80
23427;BME280;41148;45.420;10.952;2022-12-18T05:47:41;102250.44;;;5.30;90.96
23427;BME280;41148;45.420;10.952;2022-12-18T05:50:09;102251.41;;;5.34;90.77
23427;BME280;41148;45.420;10.952;2022-12-18T05:52:36;102255.00;;;5.39;89.49
23427;BME280;41148;45.420;10.952;2022-12-18T05:55:04;102255.84;;;5.36;89.52
23427;BME280;41148;45.420;10.952;2022-12-18T05:57:32;102251.47;;;5.37;90.34
23427;BME280;41148;45.420;10.952;2022-12-18T05:59:59;102257.66;;;5.39;87.73
23427;BME280;41148;45.420;10.952;2022-12-18T06:02:27;102249.59;;;5.31;90.27
23427;BME280;41148;45.420;10.952;2022-12-18T06:04:54;102261.09;;;5.33;92.71
23427;BME280;41148;45.420;10.952;2022-12-18T06:07:22;102279.50;;;5.29;90.71
23427;BME280;41148;45.420;10.952;2022-12-18T06:09:49;102281.34;;;5.33;90.16
23427;BME280;41148;45.420;10.952;2022-12-18T06:12:17;102290.22;;;5.36;91.58
23427;BME280;41148;45.420;10.952;2022-12-18T06:14:44;102289.44;;;5.40;90.09
23427;BME280;41148;45.420;10.952;2022-12-18T06:17:12;102272.66;;;5.40;89.46
23427;BME280;41148;45.420;10.952;2022-12-18T06:19:39;102295.63;;;5.42;89.22
23427;BME280;41148;45.420;10.952;2022-12-18T06:22:06;102302.72;;;5.45;91.47
23427;BME280;41148;45.420;10.952;2022-12-18T06:24:34;102301.69;;;5.38;93.29
23427;BME280;41148;45.420;10.952;2022-12-18T06:27:02;102308.72;;;5.38;94.20
23427;BME280;41148;45.420;10.952;2022-12-18T06:29:29;102301.69;;;5.38;93.56
23427;BME280;41148;45.420;10.952;2022-12-18T06:31:57;102305.19;;;5.36;94.56
23427;BME280;41148;45.420;10.952;2022-12-18T06:34:24;102315.75;;;5.36;93.78
23427;BME280;41148;45.420;10.952;2022-12-18T06:36:52;102322.03;;;5.41;93.70
23427;BME280;41148;45.420;10.952;2022-12-18T06:39:19;102323.69;;;5.37;94.30
23427;BME280;41148;45.420;10.952;2022-12-18T06:41:47;102324.69;;;5.41;95.15
23427;BME280;41148;45.420;10.952;2022-12-18T06:44:14;102338.00;;;5.47;95.89
23427;BME280;41148;45.420;10.952;2022-12-18T06:46:41;102330.91;;;5.44;95.79
23427;BME280;41148;45.420;10.952;2022-12-18T06:49:09;102321.88;;;5.33;96.68
23427;BME280;41148;45.420;10.952;2022-12-18T06:51:37;102330.78;;;5.40;97.37
23427;BME280;41148;45.420;10.952;2022-12-18T06:54:04;102331.44;;;5.27;95.99
23427;BME280;41148;45.420;10.952;2022-12-18T06:56:32;102336.81;;;5.31;96.23
23427;BME280;41148;45.420;10.952;2022-12-18T06:59:00;102337.00;;;5.40;96.56
23427;BME280;41148;45.420;10.952;2022-12-18T07:01:27;102342.34;;;5.43;96.74
23427;BME280;41148;45.420;10.952;2022-12-18T07:03:56;102347.47;;;5.36;97.55
23427;BME280;41148;45.420;10.952;2022-12-18T07:06:25;102350.94;;;5.33;97.69
23427;BME280;41148;45.420;10.952;2022-12-18T07:08:53;102348.22;;;5.30;97.24
23427;BME280;41148;45.420;10.952;2022-12-18T07:11:21;102357.22;;;5.40;98.17
23427;BME280;41148;45.420;10.952;2022-12-18T07:13:49;102353.59;;;5.33;97.37
23427;BME280;41148;45.420;10.952;2022-12-18T07:16:18;102371.31;;;5.39;97.62
23427;BME280;41148;45.420;10.952;2022-12-18T07:18:52;102362.50;;;5.40;96.63
23427;BME280;41148;45.420;10.952;2022-12-18T07:21:22;102374.91;;;5.42;96.78
23427;BME280;41148;45.420;10.952;2022-12-18T07:23:49;102380.22;;;5.42;97.44
23427;BME280;41148;45.420;10.952;2022-12-18T07:26:18;102378.56;;;5.49;96.60
23427;BME280;41148;45.420;10.952;2022-12-18T07:28:47;102380.31;;;5.49;96.66
23427;BME280;41148;45.420;10.952;2022-12-18T07:31:18;102390.97;;;5.52;96.59
23427;BME280;41148;45.420;10.952;2022-12-18T07:33:47;102394.47;;;5.51;96.71
23427;BME280;41148;45.420;10.952;2022-12-18T07:36:15;102389.13;;;5.49;97.13
23427;BME280;41148;45.420;10.952;2022-12-18T07:38:43;102399.88;;;5.57;96.78
23427;BME280;41148;45.420;10.952;2022-12-18T07:41:13;102400.72;;;5.56;97.36
23427;BME280;41148;45.420;10.952;2022-12-18T07:43:41;102400.72;;;5.56;97.36
23427;BME280;41148;45.420;10.952;2022-12-18T07:46:10;102408.78;;;5.62;96.93
23427;BME280;41148;45.420;10.952;2022-12-18T07:48:41;102405.25;;;5.60;97.22
23427;BME280;41148;45.420;10.952;2022-12-18T07:51:09;102417.59;;;5.61;96.87
23427;BME280;41148;45.420;10.952;2022-12-18T07:53:39;102408.84;;;5.65;96.54
23427;BME280;41148;45.420;10.952;2022-12-18T07:56:10;102424.75;;;5.68;96.62
23427;BME280;41148;45.420;10.952;2022-12-18T07:58:54;102435.34;;;5.68;95.26
23427;BME280;41148;45.420;10.952;2022-12-18T08:01:21;102436.88;;;5.57;93.90
23427;BME280;41148;45.420;10.952;2022-12-18T08:03:49;102443.34;;;5.69;94.25
23427;BME280;41148;45.420;10.952;2022-12-18T08:06:18;102449.53;;;5.71;94.67
23427;BME280;41148;45.420;10.952;2022-12-18T08:08:51;102458.53;;;5.81;94.74
23427;BME280;41148;45.420;10.952;2022-12-18T08:11:19;102462.97;;;5.82;94.35
23427;BME280;41148;45.420;10.952;2022-12-18T08:13:47;102462.81;;;5.74;93.49
23427;BME280;41148;45.420;10.952;2022-12-18T08:16:16;102468.25;;;5.82;93.53
23427;BME280;41148;45.420;10.952;2022-12-18T08:18:44;102462.91;;;5.79;92.90
23427;BME280;41148;45.420;10.952;2022-12-18T08:21:14;102478.22;;;5.94;93.54
23427;BME280;41148;45.420;10.952;2022-12-18T08:23:42;102479.94;;;5.92;94.29
23427;BME280;41148;45.420;10.952;2022-12-18T08:26:11;102472.94;;;5.95;93.57
23427;BME280;41148;45.420;10.952;2022-12-18T08:28:39;102472.22;;;6.02;91.98
23427;BME280;41148;45.420;10.952;2022-12-18T08:31:08;102481.81;;;5.97;92.95
23427;BME280;41148;45.420;10.952;2022-12-18T08:33:36;102488.06;;;6.01;93.08
23427;BME280;41148;45.420;10.952;2022-12-18T08:36:05;102485.75;;;6.18;93.19
23427;BME280;41148;45.420;10.952;2022-12-18T08:38:33;102507.72;;;6.15;92.70
23427;BME280;41148;45.420;10.952;2022-12-18T08:41:02;102503.31;;;6.14;92.88
23427;BME280;41148;45.420;10.952;2022-12-18T08:43:29;102506.75;;;6.09;92.70
23427;BME280;41148;45.420;10.952;2022-12-18T08:46:17;102514.69;;;6.09;92.88
23427;BME280;41148;45.420;10.952;2022-12-18T08:48:45;102514.69;;;6.09;93.13
23427;BME280;41148;45.420;10.952;2022-12-18T08:51:15;102521.06;;;6.20;93.77
23427;BME280;41148;45.420;10.952;2022-12-18T08:53:44;102522.84;;;6.21;93.47
23427;BME280;41148;45.420;10.952;2022-12-18T08:56:12;102520.28;;;6.25;92.71
23427;BME280;41148;45.420;10.952;2022-12-18T08:58:40;102529.09;;;6.26;93.70
23427;BME280;41148;45.420;10.952;2022-12-18T09:01:10;102508.78;;;6.25;94.13
23427;BME280;41148;45.420;10.952;2022-12-18T09:03:38;102526.72;;;6.38;92.86
23427;BME280;41148;45.420;10.952;2022-12-18T09:06:07;102517.13;;;6.46;92.03
23427;BME280;41148;45.420;10.952;2022-12-18T09:08:34;102533.25;;;6.58;91.68
23427;BME280;41148;45.420;10.952;2022-12-18T09:11:02;102541.91;;;6.48;92.17
23427;BME280;41148;45.420;10.952;2022-12-18T09:13:30;102543.75;;;6.54;92.05
23427;BME280;41148;45.420;10.952;2022-12-18T09:15:57;102541.91;;;6.50;92.03
23427;BME280;41148;45.420;10.952;2022-12-18T09:18:25;102529.59;;;6.52;92.89
23427;BME280;41148;45.420;10.952;2022-12-18T09:20:52;102532.34;;;6.56;92.28
23427;BME280;41148;45.420;10.952;2022-12-18T09:23:20;102528.88;;;6.60;91.40
23427;BME280;41148;45.420;10.952;2022-12-18T09:25:48;102538.16;;;6.85;91.17
23427;BME280;41148;45.420;10.952;2022-12-18T09:28:17;102531.16;;;6.91;89.94
23427;BME280;41148;45.420;10.952;2022-12-18T09:30:47;102529.56;;;7.02;89.34
23427;BME280;41148;45.420;10.952;2022-12-18T09:33:16;102533.88;;;6.95;89.54
23427;BME280;41148;45.420;10.952;2022-12-18T09:35:45;102528.47;;;6.87;89.41
23427;BME280;41148;45.420;10.952;2022-12-18T09:38:15;102520.53;;;6.89;88.05
23427;BME280;41148;45.420;10.952;2022-12-18T09:40:52;102535.53;;;6.88;88.50
23427;BME280;41148;45.420;10.952;2022-12-18T09:43:36;102538.16;;;6.87;87.29
23427;BME280;41148;45.420;10.952;2022-12-18T09:46:11;102522.44;;;6.98;87.01
23427;BME280;41148;45.420;10.952;2022-12-18T09:48:48;102526.88;;;6.99;86.58
23427;BME280;41148;45.420;10.952;2022-12-18T09:51:22;102527.75;;;6.99;87.51
23427;BME280;41148;45.420;10.952;2022-12-18T09:53:56;102522.31;;;6.92;87.43
23427;BME280;41148;45.420;10.952;2022-12-18T09:56:28;102522.19;;;6.84;87.00
23427;BME280;41148;45.420;10.952;2022-12-18T09:59:00;102524.03;;;6.88;86.82
23427;BME280;41148;45.420;10.952;2022-12-18T10:01:30;102523.22;;;6.94;86.28
23427;BME280;41148;45.420;10.952;2022-12-18T10:04:09;102531.28;;;6.98;85.17
23427;BME280;41148;45.420;10.952;2022-12-18T10:07:02;102514.50;;;6.99;84.66
23427;BME280;41148;45.420;10.952;2022-12-18T10:12:46;102522.06;;;7.32;82.32
23427;BME280;41148;45.420;10.952;2022-12-18T10:15:39;102497.47;;;7.42;81.17
23427;BME280;41148;45.420;10.952;2022-12-18T10:21:41;102508.75;;;7.28;81.46
23427;BME280;41148;45.420;10.952;2022-12-18T10:26:47;102509.47;;;7.14;80.79
23427;BME280;41148;45.420;10.952;2022-12-18T10:29:16;102513.91;;;7.18;79.78
23427;BME280;41148;45.420;10.952;2022-12-18T10:31:44;102513.22;;;7.32;79.47
23427;BME280;41148;45.420;10.952;2022-12-18T10:34:12;102518.59;;;7.35;79.88
23427;BME280;41148;45.420;10.952;2022-12-18T10:36:41;102515.00;;;7.33;79.16
23427;BME280;41148;45.420;10.952;2022-12-18T10:41:43;102515.88;;;7.33;77.73
23427;BME280;41148;45.420;10.952;2022-12-18T10:44:19;102518.66;;;7.39;78.99
23427;BME280;41148;45.420;10.952;2022-12-18T10:46:54;102511.78;;;7.54;78.48
23427;BME280;41148;45.420;10.952;2022-12-18T10:49:26;102512.44;;;7.37;79.72
23427;BME280;41148;45.420;10.952;2022-12-18T10:52:20;102515.81;;;7.26;78.48
23427;BME280;41148;45.420;10.952;2022-12-18T10:54:51;102523.78;;;7.29;78.69
23427;BME280;41148;45.420;10.952;2022-12-18T10:59:55;102516.72;;;7.28;79.79
23427;BME280;41148;45.420;10.952;2022-12-18T11:02:27;102520.25;;;7.28;80.09
23427;BME280;41148;45.420;10.952;2022-12-18T11:04:57;102517.59;;;7.28;80.86
23427;BME280;41148;45.420;10.952;2022-12-18T11:07:25;102505.25;;;7.30;81.36
23427;BME280;41148;45.420;10.952;2022-12-18T11:10:15;102503.56;;;7.35;80.85
23427;BME280;41148;45.420;10.952;2022-12-18T11:12:43;102501.09;;;7.47;80.35
23427;BME280;41148;45.420;10.952;2022-12-18T11:15:28;102498.44;;;7.49;80.43
23427;BME280;41148;45.420;10.952;2022-12-18T11:17:56;102494.00;;;7.46;80.48
23427;BME280;41148;45.420;10.952;2022-12-18T11:20:51;102493.13;;;7.49;80.28
23427;BME280;41148;45.420;10.952;2022-12-18T11:23:25;102494.13;;;7.56;80.44
23427;BME280;41148;45.420;10.952;2022-12-18T11:26:01;102491.47;;;7.54;80.37
23427;BME280;41148;45.420;10.952;2022-12-18T11:28:39;102492.38;;;7.58;79.91
23427;BME280;41148;45.420;10.952;2022-12-18T11:31:26;102491.50;;;7.57;80.58
23427;BME280;41148;45.420;10.952;2022-12-18T11:34:06;102484.50;;;7.64;81.20
23427;BME280;41148;45.420;10.952;2022-12-18T11:36:57;102485.31;;;7.60;82.14
23427;BME280;41148;45.420;10.952;2022-12-18T11:42:10;102476.69;;;7.78;81.13
23427;BME280;41148;45.420;10.952;2022-12-18T11:47:18;102473.06;;;7.68;82.62
23427;BME280;41148;45.420;10.952;2022-12-18T11:49:50;102476.56;;;7.65;83.08
23427;BME280;41148;45.420;10.952;2022-12-18T11:52:22;102474.66;;;7.54;83.22
23427;BME280;41148;45.420;10.952;2022-12-18T11:54:52;102473.84;;;7.61;83.73
23427;BME280;41148;45.420;10.952;2022-12-18T12:00:20;102466.09;;;7.79;83.33
23427;BME280;41148;45.420;10.952;2022-12-18T12:23:05;102469.06;;;8.03;84.77
23427;BME280;41148;45.420;10.952;2022-12-18T12:25:41;102462.75;;;7.92;84.88
23427;BME280;41148;45.420;10.952;2022-12-18T12:31:09;102470.94;;;8.15;78.38
23427;BME280;41148;45.420;10.952;2022-12-18T12:33:59;102468.19;;;8.08;77.93
23427;BME280;41148;45.420;10.952;2022-12-18T12:36:58;102456.84;;;8.22;75.65
23427;BME280;41148;45.420;10.952;2022-12-18T12:39:37;102469.16;;;8.14;74.33
23427;BME280;41148;45.420;10.952;2022-12-18T12:42:12;102453.94;;;7.99;71.79
23427;BME280;41148;45.420;10.952;2022-12-18T12:45:04;102448.59;;;7.93;74.20
23427;BME280;41148;45.420;10.952;2022-12-18T12:47:38;102468.09;;;7.98;71.00
23427;BME280;41148;45.420;10.952;2022-12-18T12:50:13;102442.41;;;7.94;69.73
23427;BME280;41148;45.420;10.952;2022-12-18T12:52:46;102451.28;;;7.98;70.47
23427;BME280;41148;45.420;10.952;2022-12-18T12:55:21;102462.69;;;7.91;71.73
23427;BME280;41148;45.420;10.952;2022-12-18T12:57:59;102465.41;;;7.94;72.26
23427;BME280;41148;45.420;10.952;2022-12-18T13:00:37;102453.22;;;8.13;71.88
23427;BME280;41148;45.420;10.952;2022-12-18T13:03:45;102447.13;;;8.23;71.15
23427;BME280;41148;45.420;10.952;2022-12-18T13:09:11;102442.59;;;8.11;70.57
23427;BME280;41148;45.420;10.952;2022-12-18T13:11:41;102448.03;;;8.25;71.30
23427;BME280;41148;45.420;10.952;2022-12-18T13:14:31;102443.59;;;8.22;72.83
23427;BME280;41148;45.420;10.952;2022-12-18T13:20:02;102428.44;;;8.12;72.59
23427;BME280;41148;45.420;10.952;2022-12-18T13:22:36;102439.09;;;8.18;71.34
23427;BME280;41148;45.420;10.952;2022-12-18T13:28:01;102436.50;;;8.24;70.46
23427;BME280;41148;45.420;10.952;2022-12-18T13:41:00;102429.44;;;8.26;70.31
23427;BME280;41148;45.420;10.952;2022-12-18T13:51:19;102432.88;;;8.13;70.47
23427;BME280;41148;45.420;10.952;2022-12-18T13:53:54;102436.44;;;8.17;69.89
23427;BME280;41148;45.420;10.952;2022-12-18T13:56:26;102443.50;;;8.15;69.84
23427;BME280;41148;45.420;10.952;2022-12-18T14:01:57;102441.81;;;8.21;69.73
23427;BME280;41148;45.420;10.952;2022-12-18T14:04:32;102444.31;;;8.08;69.72
23427;BME280;41148;45.420;10.952;2022-12-18T14:07:07;102435.59;;;8.21;69.59
23427;BME280;41148;45.420;10.952;2022-12-18T14:09:42;102435.63;;;8.22;69.00
23427;BME280;41148;45.420;10.952;2022-12-18T14:12:36;102424.91;;;8.12;69.69
23427;BME280;41148;45.420;10.952;2022-12-18T14:17:57;102432.78;;;8.06;70.49
23427;BME280;41148;45.420;10.952;2022-12-18T14:20:27;102438.03;;;7.99;72.08
23427;BME280;41148;45.420;10.952;2022-12-18T14:22:57;102439.72;;;7.91;72.77
23427;BME280;41148;45.420;10.952;2022-12-18T14:25:29;102433.56;;;7.95;72.04
23427;BME280;41148;45.420;10.952;2022-12-18T14:28:13;102437.09;;;7.94;72.24
23427;BME280;41148;45.420;10.952;2022-12-18T14:30:42;102423.75;;;7.88;72.51
23427;BME280;41148;45.420;10.952;2022-12-18T14:33:15;102435.38;;;7.99;72.65
23427;BME280;41148;45.420;10.952;2022-12-18T14:35:53;102435.22;;;7.84;73.56
23427;BME280;41148;45.420;10.952;2022-12-18T14:43:26;102436.91;;;7.78;74.15
23427;BME280;41148;45.420;10.952;2022-12-18T14:45:55;102447.50;;;7.76;74.33
23427;BME280;41148;45.420;10.952;2022-12-18T14:48:41;102444.75;;;7.68;74.42
23427;BME280;41148;45.420;10.952;2022-12-18T14:54:03;102445.66;;;7.69;73.97
23427;BME280;41148;45.420;10.952;2022-12-18T14:56:36;102449.06;;;7.59;75.11
23427;BME280;41148;45.420;10.952;2022-12-18T14:59:20;102455.28;;;7.62;74.90
23427;BME280;41148;45.420;10.952;2022-12-18T15:04:39;102464.00;;;7.52;76.56
23427;BME280;41148;45.420;10.952;2022-12-18T15:09:43;102470.94;;;7.42;78.25
23427;BME280;41148;45.420;10.952;2022-12-18T15:12:41;102475.28;;;7.34;78.64
23427;BME280;41148;45.420;10.952;2022-12-18T15:20:41;102475.00;;;7.14;79.84